sensor_id;sensor_type;location;lat;lon;timestamp;P1;durP1;ratioP1;P2;durP2;ratioP2
15126;SDS011;7664;52.008;4.748;2023-09-12T00:01:24;25.52;;;19.42;;
15126;SDS011;7664;52.008;4.748;2023-09-12T00:03:52;27.15;;;19.35;;
15126;SDS011;7664;52.008;4.748;2023-09-12T00:06:20;32.38;;;20.15;;
15126;SDS011;7664;52.008;4.748;2023-09-12T00:08:48;27.05;;;20.17;;
15126;SDS011;7664;52.008;4.748;2023-09-12T00:11:18;24.50;;;17.80;;
15126;SDS011;7664;52.008;4.748;2023-09-12T00:13:46;26.40;;;19.35;;
15126;SDS011;7664;52.008;4.748;2023-09-12T00:16:14;25.60;;;19.33;;
15126;SDS011;7664;52.008;4.748;2023-09-12T00:18:42;24.75;;;18.50;;
15126;SDS011;7664;52.008;4.748;2023-09-12T00:21:10;23.38;;;17.02;;
15126;SDS011;7664;52.008;4.748;2023-09-12T00:23:38;21.50;;;16.40;;
15126;SDS011;7664;52.008;4.748;2023-09-12T00:26:06;23.48;;;15.82;;
15126;SDS011;7664;52.008;4.748;2023-09-12T00:28:36;23.70;;;17.45;;
15126;SDS011;7664;52.008;4.748;2023-09-12T00:31:05;23.90;;;16.38;;
15126;SDS011;7664;52.008;4.748;2023-09-12T00:33:33;21.40;;;15.45;;
15126;SDS011;7664;52.008;4.748;2023-09-12T00:36:02;19.23;;;15.65;;
15126;SDS011;7664;52.008;4.748;2023-09-12T00:38:31;24.33;;;16.60;;
15126;SDS011;7664;52.008;4.748;2023-09-12T00:40:59;20.65;;;14.93;;
15126;SDS011;7664;52.008;4.748;2023-09-12T00:43:26;24.02;;;15.80;;
15126;SDS011;7664;52.008;4.748;2023-09-12T00:45:56;22.92;;;15.68;;
15126;SDS011;7664;52.008;4.748;2023-09-12T00:48:24;22.35;;;16.48;;
15126;SDS011;7664;52.008;4.748;2023-09-12T00:50:53;21.92;;;16.08;;
15126;SDS011;7664;52.008;4.748;2023-09-12T00:53:21;18.27;;;14.48;;
15126;SDS011;7664;52.008;4.748;2023-09-12T00:55:50;18.60;;;13.45;;
15126;SDS011;7664;52.008;4.748;2023-09-12T00:58:22;15.10;;;11.60;;
15126;SDS011;7664;52.008;4.748;2023-09-12T01:00:51;12.60;;;10.30;;
15126;SDS011;7664;52.008;4.748;2023-09-12T01:03:21;13.27;;;10.13;;
15126;SDS011;7664;52.008;4.748;2023-09-12T01:05:49;11.32;;;9.70;;
15126;SDS011;7664;52.008;4.748;2023-09-12T01:08:18;11.88;;;9.70;;
15126;SDS011;7664;52.008;4.748;2023-09-12T01:10:46;12.18;;;9.13;;
15126;SDS011;7664;52.008;4.748;2023-09-12T01:13:17;11.80;;;8.70;;
15126;SDS011;7664;52.008;4.748;2023-09-12T01:15:48;12.45;;;9.40;;
15126;SDS011;7664;52.008;4.748;2023-09-12T01:18:18;12.15;;;8.45;;
15126;SDS011;7664;52.008;4.748;2023-09-12T01:20:57;10.13;;;8.35;;
15126;SDS011;7664;52.008;4.748;2023-09-12T01:23:52;9.68;;;7.75;;
15126;SDS011;7664;52.008;4.748;2023-09-12T01:26:33;10.73;;;8.88;;
15126;SDS011;7664;52.008;4.748;2023-09-12T01:29:10;10.63;;;8.30;;
15126;SDS011;7664;52.008;4.748;2023-09-12T01:31:40;8.20;;;7.13;;
15126;SDS011;7664;52.008;4.748;2023-09-12T01:34:10;8.70;;;7.07;;
15126;SDS011;7664;52.008;4.748;2023-09-12T01:36:39;9.32;;;7.85;;
15126;SDS011;7664;52.008;4.748;2023-09-12T01:39:07;9.95;;;7.95;;
15126;SDS011;7664;52.008;4.748;2023-09-12T01:41:38;8.27;;;6.93;;
15126;SDS011;7664;52.008;4.748;2023-09-12T01:44:10;10.10;;;7.40;;
15126;SDS011;7664;52.008;4.748;2023-09-12T01:46:41;9.75;;;7.75;;
15126;SDS011;7664;52.008;4.748;2023-09-12T01:49:10;10.25;;;7.72;;
15126;SDS011;7664;52.008;4.748;2023-09-12T01:51:39;9.90;;;7.97;;
15126;SDS011;7664;52.008;4.748;2023-09-12T01:54:07;10.25;;;7.90;;
15126;SDS011;7664;52.008;4.748;2023-09-12T01:56:36;10.35;;;8.13;;
15126;SDS011;7664;52.008;4.748;2023-09-12T01:59:06;12.38;;;9.43;;
15126;SDS011;7664;52.008;4.748;2023-09-12T02:01:35;13.63;;;9.63;;
15126;SDS011;7664;52.008;4.748;2023-09-12T02:04:03;12.10;;;8.50;;
15126;SDS011;7664;52.008;4.748;2023-09-12T02:06:35;13.25;;;9.55;;
15126;SDS011;7664;52.008;4.748;2023-09-12T02:09:03;12.98;;;9.68;;
15126;SDS011;7664;52.008;4.748;2023-09-12T02:11:31;12.80;;;10.30;;
15126;SDS011;7664;52.008;4.748;2023-09-12T02:13:59;14.00;;;10.25;;
15126;SDS011;7664;52.008;4.748;2023-09-12T02:16:27;14.98;;;11.02;;
15126;SDS011;7664;52.008;4.748;2023-09-12T02:18:57;14.07;;;10.63;;
15126;SDS011;7664;52.008;4.748;2023-09-12T02:21:25;12.77;;;10.25;;
15126;SDS011;7664;52.008;4.748;2023-09-12T02:23:53;14.02;;;10.30;;
15126;SDS011;7664;52.008;4.748;2023-09-12T02:26:21;11.63;;;8.48;;
15126;SDS011;7664;52.008;4.748;2023-09-12T02:28:49;10.25;;;7.55;;
15126;SDS011;7664;52.008;4.748;2023-09-12T02:31:17;10.43;;;8.32;;
15126;SDS011;7664;52.008;4.748;2023-09-12T02:33:45;10.20;;;8.00;;
15126;SDS011;7664;52.008;4.748;2023-09-12T02:36:15;10.50;;;7.50;;
15126;SDS011;7664;52.008;4.748;2023-09-12T02:38:43;7.25;;;6.40;;
15126;SDS011;7664;52.008;4.748;2023-09-12T02:41:11;8.48;;;6.80;;
15126;SDS011;7664;52.008;4.748;2023-09-12T02:43:40;8.77;;;7.32;;
15126;SDS011;7664;52.008;4.748;2023-09-12T02:46:08;9.43;;;6.90;;
15126;SDS011;7664;52.008;4.748;2023-09-12T02:48:36;10.77;;;6.97;;
15126;SDS011;7664;52.008;4.748;2023-09-12T02:51:04;9.52;;;7.05;;
15126;SDS011;7664;52.008;4.748;2023-09-12T02:53:33;9.70;;;7.78;;
15126;SDS011;7664;52.008;4.748;2023-09-12T02:56:01;8.98;;;6.70;;
15126;SDS011;7664;52.008;4.748;2023-09-12T02:58:29;8.98;;;6.80;;
15126;SDS011;7664;52.008;4.748;2023-09-12T03:00:57;9.88;;;7.47;;
15126;SDS011;7664;52.008;4.748;2023-09-12T03:03:26;8.82;;;6.70;;
15126;SDS011;7664;52.008;4.748;2023-09-12T03:05:58;9.43;;;6.85;;
15126;SDS011;7664;52.008;4.748;2023-09-12T03:08:26;6.50;;;4.90;;
15126;SDS011;7664;52.008;4.748;2023-09-12T03:10:56;8.07;;;6.60;;
15126;SDS011;7664;52.008;4.748;2023-09-12T03:13:25;7.20;;;5.57;;
15126;SDS011;7664;52.008;4.748;2023-09-12T03:15:53;8.85;;;7.30;;
15126;SDS011;7664;52.008;4.748;2023-09-12T03:18:21;9.05;;;6.63;;
15126;SDS011;7664;52.008;4.748;2023-09-12T03:20:49;8.80;;;6.25;;
15126;SDS011;7664;52.008;4.748;2023-09-12T03:23:18;9.02;;;7.55;;
15126;SDS011;7664;52.008;4.748;2023-09-12T03:25:46;10.73;;;7.90;;
15126;SDS011;7664;52.008;4.748;2023-09-12T03:28:16;12.82;;;8.63;;
15126;SDS011;7664;52.008;4.748;2023-09-12T03:30:44;10.52;;;8.20;;
15126;SDS011;7664;52.008;4.748;2023-09-12T03:33:12;10.93;;;8.77;;
15126;SDS011;7664;52.008;4.748;2023-09-12T03:35:42;10.20;;;8.45;;
15126;SDS011;7664;52.008;4.748;2023-09-12T03:38:10;11.60;;;8.68;;
15126;SDS011;7664;52.008;4.748;2023-09-12T03:40:38;13.30;;;9.90;;
15126;SDS011;7664;52.008;4.748;2023-09-12T03:43:07;13.98;;;10.68;;
15126;SDS011;7664;52.008;4.748;2023-09-12T03:45:36;12.60;;;10.15;;
15126;SDS011;7664;52.008;4.748;2023-09-12T03:48:05;14.50;;;11.18;;
15126;SDS011;7664;52.008;4.748;2023-09-12T03:50:33;13.25;;;10.50;;
15126;SDS011;7664;52.008;4.748;2023-09-12T03:53:01;12.98;;;9.95;;
15126;SDS011;7664;52.008;4.748;2023-09-12T03:55:30;17.52;;;12.65;;
15126;SDS011;7664;52.008;4.748;2023-09-12T03:57:58;16.40;;;11.45;;
15126;SDS011;7664;52.008;4.748;2023-09-12T04:00:26;15.85;;;11.57;;
15126;SDS011;7664;52.008;4.748;2023-09-12T04:02:55;13.63;;;10.60;;
15126;SDS011;7664;52.008;4.748;2023-09-12T04:05:24;18.15;;;12.30;;
15126;SDS011;7664;52.008;4.748;2023-09-12T04:07:52;15.68;;;11.80;;
15126;SDS011;7664;52.008;4.748;2023-09-12T04:10:20;16.48;;;11.57;;
15126;SDS011;7664;52.008;4.748;2023-09-12T04:12:49;16.30;;;12.52;;
15126;SDS011;7664;52.008;4.748;2023-09-12T04:15:23;16.95;;;12.30;;
15126;SDS011;7664;52.008;4.748;2023-09-12T04:17:51;17.67;;;12.52;;
15126;SDS011;7664;52.008;4.748;2023-09-12T04:20:21;15.50;;;11.38;;
15126;SDS011;7664;52.008;4.748;2023-09-12T04:22:49;17.15;;;12.80;;
15126;SDS011;7664;52.008;4.748;2023-09-12T04:25:17;15.80;;;11.85;;
15126;SDS011;7664;52.008;4.748;2023-09-12T04:27:46;18.73;;;13.93;;
15126;SDS011;7664;52.008;4.748;2023-09-12T04:30:14;17.83;;;11.88;;
15126;SDS011;7664;52.008;4.748;2023-09-12T04:32:42;16.05;;;12.30;;
15126;SDS011;7664;52.008;4.748;2023-09-12T04:35:10;17.58;;;12.35;;
15126;SDS011;7664;52.008;4.748;2023-09-12T04:37:40;18.15;;;13.27;;
15126;SDS011;7664;52.008;4.748;2023-09-12T04:40:08;16.25;;;12.77;;
15126;SDS011;7664;52.008;4.748;2023-09-12T04:42:37;17.70;;;12.77;;
15126;SDS011;7664;52.008;4.748;2023-09-12T04:45:05;20.13;;;12.98;;
15126;SDS011;7664;52.008;4.748;2023-09-12T04:47:34;18.15;;;13.07;;
15126;SDS011;7664;52.008;4.748;2023-09-12T04:50:02;16.50;;;12.77;;
15126;SDS011;7664;52.008;4.748;2023-09-12T04:52:30;21.40;;;12.98;;
15126;SDS011;7664;52.008;4.748;2023-09-12T04:55:01;19.80;;;13.40;;
15126;SDS011;7664;52.008;4.748;2023-09-12T04:57:30;21.15;;;14.23;;
15126;SDS011;7664;52.008;4.748;2023-09-12T04:59:59;27.17;;;14.93;;
15126;SDS011;7664;52.008;4.748;2023-09-12T05:02:27;24.15;;;13.95;;
15126;SDS011;7664;52.008;4.748;2023-09-12T05:04:55;20.10;;;14.48;;
15126;SDS011;7664;52.008;4.748;2023-09-12T05:07:24;22.52;;;14.45;;
15126;SDS011;7664;52.008;4.748;2023-09-12T05:09:52;22.80;;;13.85;;
15126;SDS011;7664;52.008;4.748;2023-09-12T05:12:21;18.65;;;13.32;;
15126;SDS011;7664;52.008;4.748;2023-09-12T05:14:49;20.25;;;14.18;;
15126;SDS011;7664;52.008;4.748;2023-09-12T05:17:17;17.27;;;12.13;;
15126;SDS011;7664;52.008;4.748;2023-09-12T05:19:45;20.75;;;13.15;;
15126;SDS011;7664;52.008;4.748;2023-09-12T05:22:13;16.77;;;13.40;;
15126;SDS011;7664;52.008;4.748;2023-09-12T05:24:41;21.10;;;14.13;;
15126;SDS011;7664;52.008;4.748;2023-09-12T05:27:10;26.08;;;15.50;;
15126;SDS011;7664;52.008;4.748;2023-09-12T05:29:40;18.75;;;12.95;;
15126;SDS011;7664;52.008;4.748;2023-09-12T05:32:08;21.67;;;14.45;;
15126;SDS011;7664;52.008;4.748;2023-09-12T05:34:36;18.25;;;14.32;;
15126;SDS011;7664;52.008;4.748;2023-09-12T05:37:04;23.67;;;15.27;;
15126;SDS011;7664;52.008;4.748;2023-09-12T05:39:33;22.92;;;15.18;;
15126;SDS011;7664;52.008;4.748;2023-09-12T05:42:01;20.42;;;14.43;;
15126;SDS011;7664;52.008;4.748;2023-09-12T05:44:29;26.65;;;17.00;;
15126;SDS011;7664;52.008;4.748;2023-09-12T05:46:59;25.35;;;16.67;;
15126;SDS011;7664;52.008;4.748;2023-09-12T05:49:27;21.25;;;14.23;;
15126;SDS011;7664;52.008;4.748;2023-09-12T05:51:57;21.85;;;16.25;;
15126;SDS011;7664;52.008;4.748;2023-09-12T05:54:26;21.83;;;15.57;;
15126;SDS011;7664;52.008;4.748;2023-09-12T05:56:54;27.40;;;17.05;;
15126;SDS011;7664;52.008;4.748;2023-09-12T05:59:22;25.40;;;16.88;;
15126;SDS011;7664;52.008;4.748;2023-09-12T06:01:50;25.35;;;18.00;;
15126;SDS011;7664;52.008;4.748;2023-09-12T06:04:20;25.70;;;17.90;;
15126;SDS011;7664;52.008;4.748;2023-09-12T06:06:48;28.08;;;16.95;;
15126;SDS011;7664;52.008;4.748;2023-09-12T06:09:16;27.30;;;17.60;;
15126;SDS011;7664;52.008;4.748;2023-09-12T06:11:44;26.05;;;17.02;;
15126;SDS011;7664;52.008;4.748;2023-09-12T06:14:12;25.42;;;17.35;;
15126;SDS011;7664;52.008;4.748;2023-09-12T06:16:40;30.75;;;18.90;;
15126;SDS011;7664;52.008;4.748;2023-09-12T06:19:08;26.15;;;18.98;;
15126;SDS011;7664;52.008;4.748;2023-09-12T06:21:37;27.38;;;18.30;;
15126;SDS011;7664;52.008;4.748;2023-09-12T06:24:09;24.73;;;17.23;;
15126;SDS011;7664;52.008;4.748;2023-09-12T06:26:38;30.50;;;18.70;;
15126;SDS011;7664;52.008;4.748;2023-09-12T06:29:07;26.77;;;17.98;;
15126;SDS011;7664;52.008;4.748;2023-09-12T06:31:36;30.63;;;18.88;;
15126;SDS011;7664;52.008;4.748;2023-09-12T06:34:04;26.73;;;17.77;;
15126;SDS011;7664;52.008;4.748;2023-09-12T06:36:32;27.35;;;17.92;;
15126;SDS011;7664;52.008;4.748;2023-09-12T06:39:01;28.23;;;18.98;;
15126;SDS011;7664;52.008;4.748;2023-09-12T06:41:31;29.58;;;18.48;;
15126;SDS011;7664;52.008;4.748;2023-09-12T06:44:00;33.80;;;20.17;;
15126;SDS011;7664;52.008;4.748;2023-09-12T06:46:29;32.80;;;20.30;;
15126;SDS011;7664;52.008;4.748;2023-09-12T06:48:57;31.58;;;20.02;;
15126;SDS011;7664;52.008;4.748;2023-09-12T06:51:25;34.70;;;20.92;;
15126;SDS011;7664;52.008;4.748;2023-09-12T06:54:02;34.05;;;20.95;;
15126;SDS011;7664;52.008;4.748;2023-09-12T06:56:31;33.05;;;20.60;;
15126;SDS011;7664;52.008;4.748;2023-09-12T06:59:04;31.80;;;20.58;;
15126;SDS011;7664;52.008;4.748;2023-09-12T07:01:32;30.42;;;18.98;;
15126;SDS011;7664;52.008;4.748;2023-09-12T07:04:00;34.75;;;21.63;;
15126;SDS011;7664;52.008;4.748;2023-09-12T07:06:29;36.00;;;20.80;;
15126;SDS011;7664;52.008;4.748;2023-09-12T07:08:59;36.92;;;22.65;;
15126;SDS011;7664;52.008;4.748;2023-09-12T07:11:30;30.50;;;19.67;;
15126;SDS011;7664;52.008;4.748;2023-09-12T07:13:58;39.70;;;21.95;;
15126;SDS011;7664;52.008;4.748;2023-09-12T07:16:26;43.88;;;23.83;;
15126;SDS011;7664;52.008;4.748;2023-09-12T07:18:54;33.67;;;20.10;;
15126;SDS011;7664;52.008;4.748;2023-09-12T07:21:22;39.33;;;21.80;;
15126;SDS011;7664;52.008;4.748;2023-09-12T07:23:50;37.58;;;23.02;;
15126;SDS011;7664;52.008;4.748;2023-09-12T07:26:18;36.92;;;22.55;;
15126;SDS011;7664;52.008;4.748;2023-09-12T07:28:47;38.08;;;24.50;;
15126;SDS011;7664;52.008;4.748;2023-09-12T07:31:15;43.88;;;25.33;;
15126;SDS011;7664;52.008;4.748;2023-09-12T07:33:44;41.13;;;26.30;;
15126;SDS011;7664;52.008;4.748;2023-09-12T07:36:13;44.35;;;26.65;;
15126;SDS011;7664;52.008;4.748;2023-09-12T07:38:41;40.90;;;24.67;;
15126;SDS011;7664;52.008;4.748;2023-09-12T07:41:11;45.75;;;27.17;;
15126;SDS011;7664;52.008;4.748;2023-09-12T07:43:39;40.13;;;24.15;;
15126;SDS011;7664;52.008;4.748;2023-09-12T07:46:09;43.65;;;27.25;;
15126;SDS011;7664;52.008;4.748;2023-09-12T07:48:38;42.28;;;26.50;;
15126;SDS011;7664;52.008;4.748;2023-09-12T07:51:15;45.30;;;26.55;;
15126;SDS011;7664;52.008;4.748;2023-09-12T07:53:44;41.47;;;26.52;;
15126;SDS011;7664;52.008;4.748;2023-09-12T07:56:12;43.05;;;26.90;;
15126;SDS011;7664;52.008;4.748;2023-09-12T07:58:40;38.28;;;25.77;;
15126;SDS011;7664;52.008;4.748;2023-09-12T08:01:10;40.88;;;25.92;;
15126;SDS011;7664;52.008;4.748;2023-09-12T08:03:39;39.55;;;25.33;;
15126;SDS011;7664;52.008;4.748;2023-09-12T08:06:08;38.80;;;25.83;;
15126;SDS011;7664;52.008;4.748;2023-09-12T08:08:37;40.42;;;24.23;;
15126;SDS011;7664;52.008;4.748;2023-09-12T08:11:05;40.50;;;25.48;;
15126;SDS011;7664;52.008;4.748;2023-09-12T08:13:33;38.83;;;25.42;;
15126;SDS011;7664;52.008;4.748;2023-09-12T08:16:01;39.00;;;26.23;;
15126;SDS011;7664;52.008;4.748;2023-09-12T08:18:30;37.83;;;24.73;;
15126;SDS011;7664;52.008;4.748;2023-09-12T08:20:58;39.75;;;25.75;;
15126;SDS011;7664;52.008;4.748;2023-09-12T08:23:26;41.25;;;26.00;;
15126;SDS011;7664;52.008;4.748;2023-09-12T08:25:54;39.28;;;25.02;;
15126;SDS011;7664;52.008;4.748;2023-09-12T08:28:22;34.03;;;22.77;;
15126;SDS011;7664;52.008;4.748;2023-09-12T08:30:50;36.08;;;24.48;;
15126;SDS011;7664;52.008;4.748;2023-09-12T08:33:19;35.47;;;23.23;;
15126;SDS011;7664;52.008;4.748;2023-09-12T08:35:53;34.22;;;22.33;;
15126;SDS011;7664;52.008;4.748;2023-09-12T08:38:21;33.65;;;23.35;;
15126;SDS011;7664;52.008;4.748;2023-09-12T08:40:49;35.28;;;23.58;;
15126;SDS011;7664;52.008;4.748;2023-09-12T08:43:17;32.03;;;23.33;;
15126;SDS011;7664;52.008;4.748;2023-09-12T08:45:46;32.00;;;23.27;;
15126;SDS011;7664;52.008;4.748;2023-09-12T08:48:14;32.42;;;23.35;;
15126;SDS011;7664;52.008;4.748;2023-09-12T08:50:43;32.75;;;23.95;;
15126;SDS011;7664;52.008;4.748;2023-09-12T08:53:16;36.40;;;24.77;;
15126;SDS011;7664;52.008;4.748;2023-09-12T08:55:48;33.03;;;22.80;;
15126;SDS011;7664;52.008;4.748;2023-09-12T08:58:18;32.20;;;22.63;;
15126;SDS011;7664;52.008;4.748;2023-09-12T09:00:47;36.10;;;23.95;;
15126;SDS011;7664;52.008;4.748;2023-09-12T09:03:16;32.90;;;23.00;;
15126;SDS011;7664;52.008;4.748;2023-09-12T09:05:45;28.23;;;21.70;;
15126;SDS011;7664;52.008;4.748;2023-09-12T09:08:16;30.48;;;22.70;;
15126;SDS011;7664;52.008;4.748;2023-09-12T09:10:54;34.22;;;23.88;;
15126;SDS011;7664;52.008;4.748;2023-09-12T09:13:23;31.73;;;21.98;;
15126;SDS011;7664;52.008;4.748;2023-09-12T09:16:05;30.38;;;21.85;;
15126;SDS011;7664;52.008;4.748;2023-09-12T09:18:50;32.28;;;21.65;;
15126;SDS011;7664;52.008;4.748;2023-09-12T09:21:22;34.72;;;21.88;;
15126;SDS011;7664;52.008;4.748;2023-09-12T09:23:53;31.42;;;22.10;;
15126;SDS011;7664;52.008;4.748;2023-09-12T09:26:22;30.55;;;22.02;;
15126;SDS011;7664;52.008;4.748;2023-09-12T09:29:03;31.60;;;22.35;;
15126;SDS011;7664;52.008;4.748;2023-09-12T09:31:32;30.65;;;22.75;;
15126;SDS011;7664;52.008;4.748;2023-09-12T09:34:01;33.10;;;24.02;;
15126;SDS011;7664;52.008;4.748;2023-09-12T09:36:30;30.45;;;22.73;;
15126;SDS011;7664;52.008;4.748;2023-09-12T09:39:01;34.78;;;22.58;;
15126;SDS011;7664;52.008;4.748;2023-09-12T09:41:31;28.13;;;20.70;;
15126;SDS011;7664;52.008;4.748;2023-09-12T09:44:00;31.58;;;21.60;;
15126;SDS011;7664;52.008;4.748;2023-09-12T09:46:28;31.40;;;23.90;;
15126;SDS011;7664;52.008;4.748;2023-09-12T09:48:56;30.02;;;22.50;;
15126;SDS011;7664;52.008;4.748;2023-09-12T09:51:25;31.02;;;22.10;;
15126;SDS011;7664;52.008;4.748;2023-09-12T09:53:53;26.45;;;20.77;;
15126;SDS011;7664;52.008;4.748;2023-09-12T09:56:25;29.70;;;21.80;;
15126;SDS011;7664;52.008;4.748;2023-09-12T09:58:54;27.92;;;20.70;;
15126;SDS011;7664;52.008;4.748;2023-09-12T10:01:23;28.75;;;21.05;;
15126;SDS011;7664;52.008;4.748;2023-09-12T10:03:56;28.65;;;21.65;;
15126;SDS011;7664;52.008;4.748;2023-09-12T10:06:26;25.42;;;18.80;;
15126;SDS011;7664;52.008;4.748;2023-09-12T10:08:55;26.02;;;19.50;;
15126;SDS011;7664;52.008;4.748;2023-09-12T10:11:28;23.58;;;18.50;;
15126;SDS011;7664;52.008;4.748;2023-09-12T10:13:59;23.98;;;18.38;;
15126;SDS011;7664;52.008;4.748;2023-09-12T10:16:30;26.40;;;20.25;;
15126;SDS011;7664;52.008;4.748;2023-09-12T10:19:02;24.77;;;19.15;;
15126;SDS011;7664;52.008;4.748;2023-09-12T10:21:37;24.13;;;19.23;;
15126;SDS011;7664;52.008;4.748;2023-09-12T10:24:13;26.08;;;18.80;;
15126;SDS011;7664;52.008;4.748;2023-09-12T10:26:43;23.92;;;17.63;;
15126;SDS011;7664;52.008;4.748;2023-09-12T10:29:13;24.88;;;18.10;;
15126;SDS011;7664;52.008;4.748;2023-09-12T10:31:41;21.45;;;17.15;;
15126;SDS011;7664;52.008;4.748;2023-09-12T10:34:10;23.05;;;18.90;;
15126;SDS011;7664;52.008;4.748;2023-09-12T10:36:44;23.60;;;17.98;;
15126;SDS011;7664;52.008;4.748;2023-09-12T10:39:14;23.33;;;16.60;;
15126;SDS011;7664;52.008;4.748;2023-09-12T10:41:44;22.60;;;17.88;;
15126;SDS011;7664;52.008;4.748;2023-09-12T10:44:14;23.52;;;17.83;;
15126;SDS011;7664;52.008;4.748;2023-09-12T10:46:43;20.50;;;16.17;;
15126;SDS011;7664;52.008;4.748;2023-09-12T10:49:13;21.30;;;16.75;;
15126;SDS011;7664;52.008;4.748;2023-09-12T10:51:43;18.67;;;14.38;;
15126;SDS011;7664;52.008;4.748;2023-09-12T10:54:13;21.88;;;15.45;;
15126;SDS011;7664;52.008;4.748;2023-09-12T10:56:43;20.40;;;15.45;;
15126;SDS011;7664;52.008;4.748;2023-09-12T10:59:17;17.33;;;15.20;;
15126;SDS011;7664;52.008;4.748;2023-09-12T11:01:44;22.50;;;15.80;;
15126;SDS011;7664;52.008;4.748;2023-09-12T11:04:29;23.52;;;16.55;;
15126;SDS011;7664;52.008;4.748;2023-09-12T11:10:19;17.67;;;13.73;;
15126;SDS011;7664;52.008;4.748;2023-09-12T11:12:50;14.98;;;11.95;;
15126;SDS011;7664;52.008;4.748;2023-09-12T11:15:19;19.98;;;13.43;;
15126;SDS011;7664;52.008;4.748;2023-09-12T11:17:48;17.90;;;13.82;;
15126;SDS011;7664;52.008;4.748;2023-09-12T11:20:17;16.35;;;13.40;;
15126;SDS011;7664;52.008;4.748;2023-09-12T11:22:49;16.98;;;12.63;;
15126;SDS011;7664;52.008;4.748;2023-09-12T11:25:19;20.90;;;15.45;;
15126;SDS011;7664;52.008;4.748;2023-09-12T11:28:03;20.05;;;15.10;;
15126;SDS011;7664;52.008;4.748;2023-09-12T11:30:32;18.40;;;14.20;;
15126;SDS011;7664;52.008;4.748;2023-09-12T11:33:03;18.33;;;13.75;;
15126;SDS011;7664;52.008;4.748;2023-09-12T11:35:35;20.25;;;14.25;;
15126;SDS011;7664;52.008;4.748;2023-09-12T11:38:09;19.15;;;14.95;;
15126;SDS011;7664;52.008;4.748;2023-09-12T11:40:42;20.77;;;14.45;;
15126;SDS011;7664;52.008;4.748;2023-09-12T11:43:20;18.60;;;13.00;;
15126;SDS011;7664;52.008;4.748;2023-09-12T11:45:50;17.85;;;13.02;;
15126;SDS011;7664;52.008;4.748;2023-09-12T11:48:19;17.08;;;13.63;;
15126;SDS011;7664;52.008;4.748;2023-09-12T11:50:51;19.17;;;14.15;;
15126;SDS011;7664;52.008;4.748;2023-09-12T11:53:21;17.17;;;12.98;;
15126;SDS011;7664;52.008;4.748;2023-09-12T11:55:52;17.25;;;13.35;;
15126;SDS011;7664;52.008;4.748;2023-09-12T11:58:24;20.63;;;14.82;;
15126;SDS011;7664;52.008;4.748;2023-09-12T12:00:54;10.35;;;7.38;;
15126;SDS011;7664;52.008;4.748;2023-09-12T12:03:24;7.95;;;6.40;;
15126;SDS011;7664;52.008;4.748;2023-09-12T12:05:53;5.80;;;4.43;;
15126;SDS011;7664;52.008;4.748;2023-09-12T12:08:23;2.67;;;2.35;;
15126;SDS011;7664;52.008;4.748;2023-09-12T12:10:54;2.63;;;2.25;;
15126;SDS011;7664;52.008;4.748;2023-09-12T12:13:23;3.33;;;2.17;;
15126;SDS011;7664;52.008;4.748;2023-09-12T12:15:52;4.70;;;2.97;;
15126;SDS011;7664;52.008;4.748;2023-09-12T12:18:20;4.20;;;2.22;;
15126;SDS011;7664;52.008;4.748;2023-09-12T12:20:48;3.20;;;2.60;;
15126;SDS011;7664;52.008;4.748;2023-09-12T12:23:16;3.67;;;2.75;;
15126;SDS011;7664;52.008;4.748;2023-09-12T12:25:44;3.60;;;1.98;;
15126;SDS011;7664;52.008;4.748;2023-09-12T12:28:12;4.00;;;2.38;;
15126;SDS011;7664;52.008;4.748;2023-09-12T12:30:41;5.82;;;2.08;;
15126;SDS011;7664;52.008;4.748;2023-09-12T12:33:09;2.63;;;1.92;;
15126;SDS011;7664;52.008;4.748;2023-09-12T12:36:00;4.10;;;2.05;;
15126;SDS011;7664;52.008;4.748;2023-09-12T12:38:31;2.28;;;1.60;;
15126;SDS011;7664;52.008;4.748;2023-09-12T12:41:02;1.77;;;1.50;;
15126;SDS011;7664;52.008;4.748;2023-09-12T12:43:30;2.15;;;1.70;;
15126;SDS011;7664;52.008;4.748;2023-09-12T12:46:00;2.95;;;1.92;;
15126;SDS011;7664;52.008;4.748;2023-09-12T12:48:29;3.55;;;2.17;;
15126;SDS011;7664;52.008;4.748;2023-09-12T12:50:58;4.50;;;2.25;;
15126;SDS011;7664;52.008;4.748;2023-09-12T12:53:37;4.68;;;2.88;;
15126;SDS011;7664;52.008;4.748;2023-09-12T12:56:18;4.15;;;2.28;;
15126;SDS011;7664;52.008;4.748;2023-09-12T12:58:48;3.78;;;2.83;;
15126;SDS011;7664;52.008;4.748;2023-09-12T13:01:18;4.13;;;2.50;;
15126;SDS011;7664;52.008;4.748;2023-09-12T13:03:48;4.53;;;2.17;;
15126;SDS011;7664;52.008;4.748;2023-09-12T13:06:17;2.97;;;2.00;;
15126;SDS011;7664;52.008;4.748;2023-09-12T13:08:46;3.03;;;1.90;;
15126;SDS011;7664;52.008;4.748;2023-09-12T13:11:15;2.50;;;2.05;;
15126;SDS011;7664;52.008;4.748;2023-09-12T13:13:44;2.00;;;1.80;;
15126;SDS011;7664;52.008;4.748;2023-09-12T13:16:14;3.28;;;2.20;;
15126;SDS011;7664;52.008;4.748;2023-09-12T13:18:44;2.80;;;2.42;;
15126;SDS011;7664;52.008;4.748;2023-09-12T13:21:12;2.95;;;2.40;;
15126;SDS011;7664;52.008;4.748;2023-09-12T13:23:41;2.50;;;1.75;;
15126;SDS011;7664;52.008;4.748;2023-09-12T13:26:09;4.22;;;1.90;;
15126;SDS011;7664;52.008;4.748;2023-09-12T13:28:41;1.90;;;1.60;;
15126;SDS011;7664;52.008;4.748;2023-09-12T13:31:15;2.90;;;1.50;;
15126;SDS011;7664;52.008;4.748;2023-09-12T13:33:44;3.40;;;2.38;;
15126;SDS011;7664;52.008;4.748;2023-09-12T13:36:13;2.75;;;2.05;;
15126;SDS011;7664;52.008;4.748;2023-09-12T13:38:41;2.35;;;1.65;;
15126;SDS011;7664;52.008;4.748;2023-09-12T13:41:09;3.58;;;2.03;;
15126;SDS011;7664;52.008;4.748;2023-09-12T13:43:38;3.30;;;2.30;;
15126;SDS011;7664;52.008;4.748;2023-09-12T13:46:07;1.85;;;1.70;;
15126;SDS011;7664;52.008;4.748;2023-09-12T13:48:37;3.42;;;1.77;;
15126;SDS011;7664;52.008;4.748;2023-09-12T13:51:06;1.70;;;1.60;;
15126;SDS011;7664;52.008;4.748;2023-09-12T13:53:35;2.63;;;1.65;;
15126;SDS011;7664;52.008;4.748;2023-09-12T13:56:03;2.40;;;1.95;;
15126;SDS011;7664;52.008;4.748;2023-09-12T13:58:38;3.15;;;2.38;;
15126;SDS011;7664;52.008;4.748;2023-09-12T14:01:12;3.08;;;2.15;;
15126;SDS011;7664;52.008;4.748;2023-09-12T14:03:58;3.67;;;2.90;;
15126;SDS011;7664;52.008;4.748;2023-09-12T14:06:28;3.20;;;2.90;;
15126;SDS011;7664;52.008;4.748;2023-09-12T14:08:57;8.00;;;5.55;;
15126;SDS011;7664;52.008;4.748;2023-09-12T14:11:25;5.97;;;4.50;;
15126;SDS011;7664;52.008;4.748;2023-09-12T14:14:01;6.57;;;4.25;;
15126;SDS011;7664;52.008;4.748;2023-09-12T14:16:42;6.13;;;4.63;;
15126;SDS011;7664;52.008;4.748;2023-09-12T14:19:13;6.13;;;4.40;;
15126;SDS011;7664;52.008;4.748;2023-09-12T14:21:44;4.88;;;3.33;;
15126;SDS011;7664;52.008;4.748;2023-09-12T14:24:14;3.60;;;2.75;;
15126;SDS011;7664;52.008;4.748;2023-09-12T14:26:44;4.38;;;2.90;;
15126;SDS011;7664;52.008;4.748;2023-09-12T14:29:12;4.22;;;3.25;;
15126;SDS011;7664;52.008;4.748;2023-09-12T14:31:41;2.85;;;2.30;;
15126;SDS011;7664;52.008;4.748;2023-09-12T14:34:17;3.47;;;2.28;;
15126;SDS011;7664;52.008;4.748;2023-09-12T14:36:46;4.55;;;2.40;;
15126;SDS011;7664;52.008;4.748;2023-09-12T14:39:14;2.95;;;2.15;;
15126;SDS011;7664;52.008;4.748;2023-09-12T14:41:42;3.65;;;2.30;;
15126;SDS011;7664;52.008;4.748;2023-09-12T14:44:16;3.00;;;2.17;;
15126;SDS011;7664;52.008;4.748;2023-09-12T14:46:44;3.05;;;2.20;;
15126;SDS011;7664;52.008;4.748;2023-09-12T14:49:12;2.63;;;2.30;;
15126;SDS011;7664;52.008;4.748;2023-09-12T14:51:40;4.65;;;2.20;;
15126;SDS011;7664;52.008;4.748;2023-09-12T14:54:10;8.23;;;3.63;;
15126;SDS011;7664;52.008;4.748;2023-09-12T14:56:38;3.10;;;2.22;;
15126;SDS011;7664;52.008;4.748;2023-09-12T14:59:08;3.55;;;2.55;;
15126;SDS011;7664;52.008;4.748;2023-09-12T15:01:36;3.58;;;2.35;;